Daonith — 5BXB3 — position and weather

sailwx.info

Track history (hours):
 
Tides and Currents Weather Stations Pressure Air Temp Water Temp Dewpoint Dewpoint Depression Visibility Wind Speed Wind Dir Waves Ship Positions

Daonith

Last reported at 2017-Oct-18 18:30 UTC. Time now 2017-Oct-18 18:33 UTC.
Position N 57°50' E 011°00'.

Length 92 m; draft 5.6 m.

Type: Ship. MMSI: 210632708.

Date/timePositionNaut miles runAvg speedWind from/ knotsBaromVisibWave heightAir tempDewpointWater temp
2017-Oct-18 18:30N 57°50' E 011°00'611.5
2017-Oct-18 18:00N 57°54' E 010°51'611.2
2017-Oct-18 17:30N 57°57' E 010°42'610.9
2017-Oct-18 17:00N 57°59' E 010°33'611.3
2017-Oct-18 16:29N 57°59' E 010°22'611.9
2017-Oct-18 16:00N 57°60' E 010°12'1311.1
2017-Oct-18 14:48N 58°00' E 009°46'8 8.2
2017-Oct-18 13:51N 58°08' E 009°49'3 7.7
2017-Oct-18 13:30N 58°10' E 009°50'4 7.5
2017-Oct-18 13:00N 58°14' E 009°51'6 7.9
2017-Oct-18 12:18N 58°20' E 009°51'3 7.7
2017-Oct-18 11:56N 58°22' E 009°51'17 7.9
2017-Oct-18 09:45N 58°40' E 009°51'310.4
2017-Oct-18 09:30N 58°42' E 009°51'510.8
2017-Oct-18 09:00N 58°48' E 009°49'510.8
2017-Oct-18 08:30N 58°53' E 009°48'510.6
2017-Oct-18 08:00N 58°58' E 009°46'4 8.5
2017-Oct-18 07:30N 59°02' E 009°44'4 8.4
2017-Oct-18 07:00N 59°05' E 009°38'1 1.3
2017-Oct-18 06:30N 59°06' E 009°38'0 0.1
2017-Oct-18 06:00N 59°06' E 009°38'0 0.0
2017-Oct-18 05:30N 59°06' E 009°38'0 0.0
2017-Oct-18 05:00N 59°06' E 009°38'0 0.0
2017-Oct-18 04:30N 59°06' E 009°38'0 0.0
2017-Oct-18 04:00N 59°06' E 009°38'0 0.1
2017-Oct-18 03:30N 59°06' E 009°38'0 0.1
2017-Oct-18 03:00N 59°06' E 009°38'0 0.0
2017-Oct-18 02:30N 59°06' E 009°38'0 0.0
2017-Oct-18 02:00N 59°06' E 009°38'0 0.1
2017-Oct-18 01:30N 59°06' E 009°38'0 0.0
2017-Oct-18 01:00N 59°06' E 009°38'0 0.1
2017-Oct-18 00:30N 59°06' E 009°38'0 0.1
2017-Oct-18 00:00N 59°06' E 009°38'0 0.0
2017-Oct-17 23:30N 59°06' E 009°38'0 0.0
2017-Oct-17 23:00N 59°06' E 009°38'0 0.0
2017-Oct-17 22:30N 59°06' E 009°38'0 0.0
2017-Oct-17 22:00N 59°06' E 009°38'0 0.0
2017-Oct-17 21:30N 59°06' E 009°38'0 0.0
2017-Oct-17 21:00N 59°06' E 009°38'0 0.0
2017-Oct-17 20:30N 59°06' E 009°38'0 0.0
2017-Oct-17 20:00N 59°06' E 009°38'0 0.0
2017-Oct-17 19:30N 59°06' E 009°38'0 0.0
2017-Oct-17 19:00N 59°06' E 009°38'0 0.0
2017-Oct-17 18:30N 59°06' E 009°38'0 0.0
2017-Oct-17 18:00N 59°06' E 009°38'0 0.0
2017-Oct-17 17:30N 59°06' E 009°38'0 0.0
2017-Oct-17 17:00N 59°06' E 009°38'0 0.0
2017-Oct-17 16:30N 59°06' E 009°38'0 0.0
2017-Oct-17 16:00N 59°06' E 009°38'0 0.0
2017-Oct-17 15:30N 59°06' E 009°38'0 0.0
2017-Oct-17 15:00N 59°06' E 009°38'0 0.0
2017-Oct-17 14:30N 59°06' E 009°38'0 0.0
2017-Oct-17 14:00N 59°06' E 009°38'0 0.0
2017-Oct-17 13:30N 59°06' E 009°38'0 0.0
2017-Oct-17 13:00N 59°06' E 009°38'0 0.0
2017-Oct-17 12:30N 59°06' E 009°38'0 0.0
2017-Oct-17 12:00N 59°06' E 009°38'0 0.0
2017-Oct-17 11:30N 59°06' E 009°38'0 0.0
2017-Oct-17 11:00N 59°06' E 009°38'0 0.0
2017-Oct-17 10:30N 59°06' E 009°38'0 0.0
2017-Oct-17 10:00N 59°06' E 009°38'0 0.0
2017-Oct-17 09:30N 59°06' E 009°38'0 0.0
2017-Oct-17 09:00N 59°06' E 009°38'0 0.0
2017-Oct-17 08:30N 59°06' E 009°38'0 0.0
2017-Oct-17 08:00N 59°06' E 009°38'0 0.0
2017-Oct-17 07:30N 59°06' E 009°38'0 0.0
2017-Oct-17 07:00N 59°06' E 009°38'0 0.0
2017-Oct-17 06:30N 59°06' E 009°38'0 0.0
2017-Oct-17 06:00N 59°06' E 009°38'0 0.0
2017-Oct-17 05:30N 59°06' E 009°38'0 0.0
2017-Oct-17 05:00N 59°06' E 009°38'0 0.0
2017-Oct-17 04:30N 59°06' E 009°38'0 0.0
2017-Oct-17 04:00N 59°06' E 009°38'0 0.1
2017-Oct-17 03:30N 59°06' E 009°39'0 0.1
2017-Oct-17 03:00N 59°06' E 009°38'1 1.9
2017-Oct-17 02:30N 59°06' E 009°37'1 0.1
2017-Oct-16 16:27N 59°06' E 009°36'0 0.0
2017-Oct-16 15:51N 59°06' E 009°36'0 0.0
2017-Oct-16 15:27N 59°06' E 009°36'0 0.0
2017-Oct-16 14:51N 59°06' E 009°36'0 0.0
2017-Oct-16 14:27N 59°06' E 009°36'0 0.0
2017-Oct-16 13:27N 59°06' E 009°36'0 0.0
2017-Oct-16 12:51N 59°06' E 009°36'0 0.0
2017-Oct-16 12:27N 59°06' E 009°36'0 0.0
2017-Oct-16 11:51N 59°06' E 009°36'0 0.0
2017-Oct-16 11:27N 59°06' E 009°36'0 0.0
2017-Oct-16 10:51N 59°06' E 009°36'0 0.0
2017-Oct-16 10:27N 59°06' E 009°36'0 0.0
2017-Oct-16 09:50N 59°06' E 009°36'0 0.9
2017-Oct-16 09:30N 59°06' E 009°36'4 7.2
2017-Oct-16 09:00N 59°03' E 009°41'4 7.8
2017-Oct-16 08:30N 59°01' E 009°46'4 8.4
2017-Oct-16 08:00N 58°56' E 009°48'5 9.8
2017-Oct-16 07:30N 58°52' E 009°53'5 9.4
2017-Oct-16 07:00N 58°49' E 009°59'510.2
2017-Oct-16 06:30N 58°45' E 010°05'510.5
2017-Oct-16 06:00N 58°41' E 010°11'510.4
2017-Oct-16 05:30N 58°37' E 010°18'510.5
2017-Oct-16 04:59N 58°32' E 010°24'2410.1
2017-Oct-16 02:36N 58°13' E 010°52'1 9.4
2017-Oct-16 02:30N 58°13' E 010°53'5 9.5
2017-Oct-16 02:00N 58°09' E 010°59'5 9.7
2017-Oct-16 01:30N 58°05' E 011°04'5 9.2
2017-Oct-16 00:58N 58°01' E 011°10'5 9.4
2017-Oct-16 00:29N 57°57' E 011°15'5 9.8
2017-Oct-15 23:57N 57°53' E 011°21'4 8.6
2017-Oct-15 23:30N 57°52' E 011°28'4 8.2
2017-Oct-15 23:00N 57°55' E 011°35'5 9.6
2017-Oct-15 22:30N 57°57' E 011°42'6 9.9
2017-Oct-15 21:57N 58°02' E 011°47'3 4.5
2017-Oct-15 21:20N 58°05' E 011°48'0 0.1
2017-Oct-15 20:59N 58°05' E 011°48'0 0.0
2017-Oct-15 06:17N 58°05' E 011°48'0 0.3
2017-Oct-15 05:58N 58°05' E 011°48'3 6.2
2017-Oct-15 05:28N 58°02' E 011°47'511.5
2017-Oct-15 05:00N 57°57' E 011°42'511.1
2017-Oct-15 04:30N 57°54' E 011°33'5 9.9
2017-Oct-15 04:00N 57°51' E 011°26'3 6.7
2017-Oct-15 03:31N 57°54' E 011°23'2 2.0
2017-Oct-15 02:46N 57°55' E 011°22'0 0.0
2017-Oct-15 01:43N 57°55' E 011°22'0 0.0
2017-Oct-15 00:13N 57°55' E 011°22'0 0.0
2017-Oct-14 22:40N 57°55' E 011°22'0 0.0
2017-Oct-14 22:28N 57°55' E 011°22'0 0.0
2017-Oct-14 21:22N 57°55' E 011°22'0 0.0
2017-Oct-14 18:04N 57°55' E 011°22'0 0.0
2017-Oct-14 17:19N 57°55' E 011°22'0 0.0
2017-Oct-14 16:40N 57°55' E 011°22'0 0.0
2017-Oct-14 15:58N 57°55' E 011°22'0 0.0
2017-Oct-14 15:16N 57°55' E 011°22'0 0.0
2017-Oct-14 14:25N 57°55' E 011°22'0 0.1
2017-Oct-14 13:52N 57°55' E 011°22'0 0.2
2017-Oct-14 13:26N 57°55' E 011°21'2 4.9
2017-Oct-14 13:00N 57°56' E 011°18'3 6.3
2017-Oct-14 12:27N 57°57' E 011°11'3 6.6
2017-Oct-14 11:59N 57°57' E 011°06'3 6.5
2017-Oct-14 11:30N 57°58' E 010°60'4 6.4
2017-Oct-14 10:54N 57°59' E 010°53'3 6.5
2017-Oct-14 10:30N 57°59' E 010°48'3 6.5
2017-Oct-14 10:00N 58°00' E 010°42'4 7.1
2017-Oct-14 09:29N 58°01' E 010°35'4 7.6
2017-Oct-14 08:59N 58°01' E 010°28'5 7.8
2017-Oct-14 08:23N 58°01' E 010°19'6 2.8
2017-Oct-14 06:08N 58°01' E 010°32'1 4.7
2017-Oct-14 06:00N 58°01' E 010°32'4 6.7
2017-Oct-14 05:26N 58°00' E 010°25'3 7.4
2017-Oct-14 05:00N 58°00' E 010°19'9 7.5
2017-Oct-14 03:49N 58°00' E 010°02'3 7.8
2017-Oct-14 03:26N 58°00' E 009°56'3 8.2
2017-Oct-14 03:00N 58°00' E 009°50'39 8.4
2017-Oct-13 22:22N 58°36' E 010°18'3 8.3
2017-Oct-13 22:00N 58°39' E 010°20'4 7.8
2017-Oct-13 21:30N 58°43' E 010°23'4 7.9
2017-Oct-13 21:00N 58°46' E 010°27'4 8.3
2017-Oct-13 20:30N 58°50' E 010°31'4 8.6
2017-Oct-13 20:00N 58°53' E 010°35'4 8.2
2017-Oct-13 19:31N 58°57' E 010°40'4 8.0
2017-Oct-13 19:00N 58°60' E 010°44'4 7.3
2017-Oct-13 18:30N 59°02' E 010°50'4 8.0
2017-Oct-13 18:00N 59°01' E 010°58'5 9.2
2017-Oct-13 17:30N 59°06' E 010°58'5 9.7
2017-Oct-13 17:00N 59°11' E 010°57'3 7.0
2017-Oct-13 16:30N 59°14' E 010°60'3 6.6
2017-Oct-13 16:00N 59°16' E 011°05'1 1.3
2017-Oct-13 15:30N 59°16' E 011°06'0 0.0
2017-Oct-13 15:00N 59°16' E 011°06'0 0.0
2017-Oct-13 14:26N 59°16' E 011°06'0 0.0
2017-Oct-13 13:50N 59°16' E 011°06'0 0.0
2017-Oct-13 13:26N 59°16' E 011°06'0 0.0
2017-Oct-13 12:50N 59°16' E 011°06'0 0.0
2017-Oct-13 12:26N 59°16' E 011°06'0 0.0
2017-Oct-13 11:50N 59°16' E 011°06'0 0.0
2017-Oct-13 11:26N 59°16' E 011°06'0 0.0
2017-Oct-11 20:11N 59°16' E 011°06'0 0.0
2017-Oct-11 20:00N 59°16' E 011°06'1 1.2
2017-Oct-11 19:30N 59°16' E 011°05'3 6.4
2017-Oct-11 19:00N 59°14' E 010°60'3 6.6
2017-Oct-11 18:30N 59°11' E 010°57'510.0
2017-Oct-11 18:00N 59°06' E 010°58'510.7
2017-Oct-11 17:30N 59°01' E 010°57'5 9.2
2017-Oct-11 17:00N 59°02' E 010°48'38 2.2
2017-Oct-10 23:56N 59°06' E 009°35'0 0.0
2017-Oct-10 23:20N 59°06' E 009°35'0 0.0
2017-Oct-10 22:56N 59°06' E 009°35'0 0.0
2017-Oct-10 22:20N 59°06' E 009°35'0 0.0
2017-Oct-10 21:56N 59°06' E 009°35'0 0.0
2017-Oct-10 21:20N 59°06' E 009°35'0 0.0
2017-Oct-10 20:56N 59°06' E 009°35'0 0.0
2017-Oct-10 20:20N 59°06' E 009°35'0 0.2
2017-Oct-10 20:00N 59°06' E 009°35'2 3.6
2017-Oct-10 19:30N 59°05' E 009°38'4 8.4
2017-Oct-10 19:00N 59°02' E 009°44'510.2
2017-Oct-10 18:30N 58°58' E 009°48'4 8.4
2017-Oct-10 18:00N 58°53' E 009°47'2 4.1
2017-Oct-10 17:30N 58°52' E 009°44'1 2.0
2017-Oct-10 17:00N 58°51' E 009°42'1 1.2
2017-Oct-10 16:29N 58°51' E 009°41'1 1.5
2017-Oct-10 16:00N 58°51' E 009°40'1 1.6
2017-Oct-10 15:30N 58°50' E 009°39'1 1.4
2017-Oct-10 15:00N 58°50' E 009°40'2 1.5
2017-Oct-10 14:00N 58°51' E 009°43'1 1.6
2017-Oct-10 13:30N 58°52' E 009°44'1 1.8
2017-Oct-10 13:00N 58°52' E 009°46'1 1.6
2017-Oct-10 12:30N 58°52' E 009°47'1 1.4
2017-Oct-10 12:00N 58°53' E 009°48'1 1.6
2017-Oct-10 11:30N 58°53' E 009°50'2 3.6
2017-Oct-10 11:00N 58°52' E 009°52'5 9.5
2017-Oct-10 10:30N 58°48' E 009°56'5 9.5
2017-Oct-10 10:00N 58°43' E 009°59'510.1
2017-Oct-10 09:30N 58°39' E 010°03'5410.3
2017-Oct-10 04:16N 57°49' E 010°46'311.1
2017-Oct-10 04:00N 57°47' E 010°49'611.4
2017-Oct-10 03:30N 57°43' E 010°57'611.9
2017-Oct-10 02:59N 57°39' E 011°05'612.0
2017-Oct-10 02:30N 57°35' E 011°13'611.8
2017-Oct-10 02:00N 57°31' E 011°22'611.4
2017-Oct-10 01:30N 57°27' E 011°28'611.6
2017-Oct-10 00:59N 57°21' E 011°32'511.4
2017-Oct-10 00:30N 57°16' E 011°35'611.4
2017-Oct-10 00:00N 57°10' E 011°38'611.6
2017-Oct-09 23:30N 57°05' E 011°42'5510.5
2017-Oct-09 18:16N 56°14' E 012°17'310.3
2017-Oct-09 18:00N 56°12' E 012°21'510.3
2017-Oct-09 17:30N 56°09' E 012°29'510.2
2017-Oct-09 17:00N 56°06' E 012°35'5 9.7
2017-Oct-09 16:30N 56°02' E 012°40'5 9.4
2017-Oct-09 16:00N 55°57' E 012°43'5 9.7
2017-Oct-09 15:30N 55°53' E 012°45'5 9.5
2017-Oct-09 15:00N 55°48' E 012°47'510.4
2017-Oct-09 14:30N 55°44' E 012°52'510.2
2017-Oct-09 14:00N 55°39' E 012°57'5 9.3
2017-Oct-09 13:30N 55°36' E 012°52'510.6
2017-Oct-09 13:00N 55°32' E 012°46'510.1
2017-Oct-09 12:30N 55°27' E 012°43'510.4
2017-Oct-09 12:00N 55°22' E 012°42'4 8.4
2017-Oct-09 11:30N 55°18' E 012°44'510.7
2017-Oct-09 11:00N 55°16' E 012°53'510.6
2017-Oct-09 10:30N 55°15' E 013°02'810.8
2017-Oct-09 09:44N 55°15' E 013°17'210.5
2017-Oct-09 09:30N 55°15' E 013°21'2710.5
2017-Oct-09 06:55N 55°13' E 014°08'410.1
2017-Oct-09 06:30N 55°14' E 014°16'510.7
2017-Oct-09 06:00N 55°18' E 014°22'611.1
2017-Oct-09 05:28N 55°22' E 014°28'511.2
2017-Oct-09 05:00N 55°26' E 014°34'510.8
2017-Oct-09 04:30N 55°29' E 014°42'610.7
2017-Oct-09 03:57N 55°32' E 014°51'710.4
2017-Oct-09 03:15N 55°36' E 015°02'610.1
2017-Oct-09 02:42N 55°39' E 015°11'4 9.9
2017-Oct-09 02:15N 55°41' E 015°18'2 9.7
2017-Oct-09 02:00N 55°42' E 015°22'5 9.7
2017-Oct-09 01:30N 55°44' E 015°29'510.0
2017-Oct-09 01:00N 55°47' E 015°37'510.3
2017-Oct-09 00:30N 55°49' E 015°44'510.3
2017-Oct-09 00:00N 55°52' E 015°52'510.5
2017-Oct-08 23:30N 55°55' E 016°01'510.7
2017-Oct-08 23:00N 55°57' E 016°09'510.7
2017-Oct-08 22:30N 55°60' E 016°17'510.7
2017-Oct-08 22:00N 56°02' E 016°26'510.8
2017-Oct-08 21:30N 56°05' E 016°34'510.9
2017-Oct-08 21:00N 56°08' E 016°42'711.8
2017-Oct-08 20:26N 56°15' E 016°47'  
Track history (hours):
 
Tides and Currents Weather Stations Pressure Air Temp Water Temp Dewpoint Dewpoint Depression Visibility Wind Speed Wind Dir Waves Ship Positions

Daonith

Last reported at 2017-Oct-18 18:30 UTC. Time now 2017-Oct-18 18:33 UTC.
Position N 57°50' E 011°00'.

Length 92 m; draft 5.6 m.

Type: Ship. MMSI: 210632708.

Date/timePositionNaut miles runAvg speedWind from/ knotsBaromVisibWave heightAir tempDewpointWater temp
2017-Oct-18 18:30N 57°50' E 011°00'611.5
2017-Oct-18 18:00N 57°54' E 010°51'611.2
2017-Oct-18 17:30N 57°57' E 010°42'610.9
2017-Oct-18 17:00N 57°59' E 010°33'611.3
2017-Oct-18 16:29N 57°59' E 010°22'611.9
2017-Oct-18 16:00N 57°60' E 010°12'1311.1
2017-Oct-18 14:48N 58°00' E 009°46'8 8.2
2017-Oct-18 13:51N 58°08' E 009°49'3 7.7
2017-Oct-18 13:30N 58°10' E 009°50'4 7.5
2017-Oct-18 13:00N 58°14' E 009°51'6 7.9
2017-Oct-18 12:18N 58°20' E 009°51'3 7.7
2017-Oct-18 11:56N 58°22' E 009°51'17 7.9
2017-Oct-18 09:45N 58°40' E 009°51'310.4
2017-Oct-18 09:30N 58°42' E 009°51'510.8
2017-Oct-18 09:00N 58°48' E 009°49'510.8
2017-Oct-18 08:30N 58°53' E 009°48'510.6
2017-Oct-18 08:00N 58°58' E 009°46'4 8.5
2017-Oct-18 07:30N 59°02' E 009°44'4 8.4
2017-Oct-18 07:00N 59°05' E 009°38'1 1.3
2017-Oct-18 06:30N 59°06' E 009°38'0 0.1
2017-Oct-18 06:00N 59°06' E 009°38'0 0.0
2017-Oct-18 05:30N 59°06' E 009°38'0 0.0
2017-Oct-18 05:00N 59°06' E 009°38'0 0.0
2017-Oct-18 04:30N 59°06' E 009°38'0 0.0
2017-Oct-18 04:00N 59°06' E 009°38'0 0.1
2017-Oct-18 03:30N 59°06' E 009°38'0 0.1
2017-Oct-18 03:00N 59°06' E 009°38'0 0.0
2017-Oct-18 02:30N 59°06' E 009°38'0 0.0
2017-Oct-18 02:00N 59°06' E 009°38'0 0.1
2017-Oct-18 01:30N 59°06' E 009°38'0 0.0
2017-Oct-18 01:00N 59°06' E 009°38'0 0.1
2017-Oct-18 00:30N 59°06' E 009°38'0 0.1
2017-Oct-18 00:00N 59°06' E 009°38'0 0.0
2017-Oct-17 23:30N 59°06' E 009°38'0 0.0
2017-Oct-17 23:00N 59°06' E 009°38'0 0.0
2017-Oct-17 22:30N 59°06' E 009°38'0 0.0
2017-Oct-17 22:00N 59°06' E 009°38'0 0.0
2017-Oct-17 21:30N 59°06' E 009°38'0 0.0
2017-Oct-17 21:00N 59°06' E 009°38'0 0.0
2017-Oct-17 20:30N 59°06' E 009°38'0 0.0
2017-Oct-17 20:00N 59°06' E 009°38'0 0.0
2017-Oct-17 19:30N 59°06' E 009°38'0 0.0
2017-Oct-17 19:00N 59°06' E 009°38'0 0.0
2017-Oct-17 18:30N 59°06' E 009°38'0 0.0
2017-Oct-17 18:00N 59°06' E 009°38'0 0.0
2017-Oct-17 17:30N 59°06' E 009°38'0 0.0
2017-Oct-17 17:00N 59°06' E 009°38'0 0.0
2017-Oct-17 16:30N 59°06' E 009°38'0 0.0
2017-Oct-17 16:00N 59°06' E 009°38'0 0.0
2017-Oct-17 15:30N 59°06' E 009°38'0 0.0
2017-Oct-17 15:00N 59°06' E 009°38'0 0.0
2017-Oct-17 14:30N 59°06' E 009°38'0 0.0
2017-Oct-17 14:00N 59°06' E 009°38'0 0.0
2017-Oct-17 13:30N 59°06' E 009°38'0 0.0
2017-Oct-17 13:00N 59°06' E 009°38'0 0.0
2017-Oct-17 12:30N 59°06' E 009°38'0 0.0
2017-Oct-17 12:00N 59°06' E 009°38'0 0.0
2017-Oct-17 11:30N 59°06' E 009°38'0 0.0
2017-Oct-17 11:00N 59°06' E 009°38'0 0.0
2017-Oct-17 10:30N 59°06' E 009°38'0 0.0
2017-Oct-17 10:00N 59°06' E 009°38'0 0.0
2017-Oct-17 09:30N 59°06' E 009°38'0 0.0
2017-Oct-17 09:00N 59°06' E 009°38'0 0.0
2017-Oct-17 08:30N 59°06' E 009°38'0 0.0
2017-Oct-17 08:00N 59°06' E 009°38'0 0.0
2017-Oct-17 07:30N 59°06' E 009°38'0 0.0
2017-Oct-17 07:00N 59°06' E 009°38'0 0.0
2017-Oct-17 06:30N 59°06' E 009°38'0 0.0
2017-Oct-17 06:00N 59°06' E 009°38'0 0.0
2017-Oct-17 05:30N 59°06' E 009°38'0 0.0
2017-Oct-17 05:00N 59°06' E 009°38'0 0.0
2017-Oct-17 04:30N 59°06' E 009°38'0 0.0
2017-Oct-17 04:00N 59°06' E 009°38'0 0.1
2017-Oct-17 03:30N 59°06' E 009°39'0 0.1
2017-Oct-17 03:00N 59°06' E 009°38'1 1.9
2017-Oct-17 02:30N 59°06' E 009°37'1 0.1
2017-Oct-16 16:27N 59°06' E 009°36'0 0.0
2017-Oct-16 15:51N 59°06' E 009°36'0 0.0
2017-Oct-16 15:27N 59°06' E 009°36'0 0.0
2017-Oct-16 14:51N 59°06' E 009°36'0 0.0
2017-Oct-16 14:27N 59°06' E 009°36'0 0.0
2017-Oct-16 13:27N 59°06' E 009°36'0 0.0
2017-Oct-16 12:51N 59°06' E 009°36'0 0.0
2017-Oct-16 12:27N 59°06' E 009°36'0 0.0
2017-Oct-16 11:51N 59°06' E 009°36'0 0.0
2017-Oct-16 11:27N 59°06' E 009°36'0 0.0
2017-Oct-16 10:51N 59°06' E 009°36'0 0.0
2017-Oct-16 10:27N 59°06' E 009°36'0 0.0
2017-Oct-16 09:50N 59°06' E 009°36'0 0.9
2017-Oct-16 09:30N 59°06' E 009°36'4 7.2
2017-Oct-16 09:00N 59°03' E 009°41'4 7.8
2017-Oct-16 08:30N 59°01' E 009°46'4 8.4
2017-Oct-16 08:00N 58°56' E 009°48'5 9.8
2017-Oct-16 07:30N 58°52' E 009°53'5 9.4
2017-Oct-16 07:00N 58°49' E 009°59'510.2
2017-Oct-16 06:30N 58°45' E 010°05'510.5
2017-Oct-16 06:00N 58°41' E 010°11'510.4
2017-Oct-16 05:30N 58°37' E 010°18'510.5
2017-Oct-16 04:59N 58°32' E 010°24'2410.1
2017-Oct-16 02:36N 58°13' E 010°52'1 9.4
2017-Oct-16 02:30N 58°13' E 010°53'5 9.5
2017-Oct-16 02:00N 58°09' E 010°59'5 9.7
2017-Oct-16 01:30N 58°05' E 011°04'5 9.2
2017-Oct-16 00:58N 58°01' E 011°10'5 9.4
2017-Oct-16 00:29N 57°57' E 011°15'5 9.8
2017-Oct-15 23:57N 57°53' E 011°21'4 8.6
2017-Oct-15 23:30N 57°52' E 011°28'4 8.2
2017-Oct-15 23:00N 57°55' E 011°35'5 9.6
2017-Oct-15 22:30N 57°57' E 011°42'6 9.9
2017-Oct-15 21:57N 58°02' E 011°47'3 4.5
2017-Oct-15 21:20N 58°05' E 011°48'0 0.1
2017-Oct-15 20:59N 58°05' E 011°48'0 0.0
2017-Oct-15 06:17N 58°05' E 011°48'0 0.3
2017-Oct-15 05:58N 58°05' E 011°48'3 6.2
2017-Oct-15 05:28N 58°02' E 011°47'511.5
2017-Oct-15 05:00N 57°57' E 011°42'511.1
2017-Oct-15 04:30N 57°54' E 011°33'5 9.9
2017-Oct-15 04:00N 57°51' E 011°26'3 6.7
2017-Oct-15 03:31N 57°54' E 011°23'2 2.0
2017-Oct-15 02:46N 57°55' E 011°22'0 0.0
2017-Oct-15 01:43N 57°55' E 011°22'0 0.0
2017-Oct-15 00:13N 57°55' E 011°22'0 0.0
2017-Oct-14 22:40N 57°55' E 011°22'0 0.0
2017-Oct-14 22:28N 57°55' E 011°22'0 0.0
2017-Oct-14 21:22N 57°55' E 011°22'0 0.0
2017-Oct-14 18:04N 57°55' E 011°22'0 0.0
2017-Oct-14 17:19N 57°55' E 011°22'0 0.0
2017-Oct-14 16:40N 57°55' E 011°22'0 0.0
2017-Oct-14 15:58N 57°55' E 011°22'0 0.0
2017-Oct-14 15:16N 57°55' E 011°22'0 0.0
2017-Oct-14 14:25N 57°55' E 011°22'0 0.1
2017-Oct-14 13:52N 57°55' E 011°22'0 0.2
2017-Oct-14 13:26N 57°55' E 011°21'2 4.9
2017-Oct-14 13:00N 57°56' E 011°18'3 6.3
2017-Oct-14 12:27N 57°57' E 011°11'3 6.6
2017-Oct-14 11:59N 57°57' E 011°06'3 6.5
2017-Oct-14 11:30N 57°58' E 010°60'4 6.4
2017-Oct-14 10:54N 57°59' E 010°53'3 6.5
2017-Oct-14 10:30N 57°59' E 010°48'3 6.5
2017-Oct-14 10:00N 58°00' E 010°42'4 7.1
2017-Oct-14 09:29N 58°01' E 010°35'4 7.6
2017-Oct-14 08:59N 58°01' E 010°28'5 7.8
2017-Oct-14 08:23N 58°01' E 010°19'6 2.8
2017-Oct-14 06:08N 58°01' E 010°32'1 4.7
2017-Oct-14 06:00N 58°01' E 010°32'4 6.7
2017-Oct-14 05:26N 58°00' E 010°25'3 7.4
2017-Oct-14 05:00N 58°00' E 010°19'9 7.5
2017-Oct-14 03:49N 58°00' E 010°02'3 7.8
2017-Oct-14 03:26N 58°00' E 009°56'3 8.2
2017-Oct-14 03:00N 58°00' E 009°50'39 8.4
2017-Oct-13 22:22N 58°36' E 010°18'3 8.3
2017-Oct-13 22:00N 58°39' E 010°20'4 7.8
2017-Oct-13 21:30N 58°43' E 010°23'4 7.9
2017-Oct-13 21:00N 58°46' E 010°27'4 8.3
2017-Oct-13 20:30N 58°50' E 010°31'4 8.6
2017-Oct-13 20:00N 58°53' E 010°35'4 8.2
2017-Oct-13 19:31N 58°57' E 010°40'4 8.0
2017-Oct-13 19:00N 58°60' E 010°44'4 7.3
2017-Oct-13 18:30N 59°02' E 010°50'4 8.0
2017-Oct-13 18:00N 59°01' E 010°58'5 9.2
2017-Oct-13 17:30N 59°06' E 010°58'5 9.7
2017-Oct-13 17:00N 59°11' E 010°57'3 7.0
2017-Oct-13 16:30N 59°14' E 010°60'3 6.6
2017-Oct-13 16:00N 59°16' E 011°05'1 1.3
2017-Oct-13 15:30N 59°16' E 011°06'0 0.0
2017-Oct-13 15:00N 59°16' E 011°06'0 0.0
2017-Oct-13 14:26N 59°16' E 011°06'0 0.0
2017-Oct-13 13:50N 59°16' E 011°06'0 0.0
2017-Oct-13 13:26N 59°16' E 011°06'0 0.0
2017-Oct-13 12:50N 59°16' E 011°06'0 0.0
2017-Oct-13 12:26N 59°16' E 011°06'0 0.0
2017-Oct-13 11:50N 59°16' E 011°06'0 0.0
2017-Oct-13 11:26N 59°16' E 011°06'0 0.0
2017-Oct-11 20:11N 59°16' E 011°06'0 0.0
2017-Oct-11 20:00N 59°16' E 011°06'1 1.2
2017-Oct-11 19:30N 59°16' E 011°05'3 6.4
2017-Oct-11 19:00N 59°14' E 010°60'3 6.6
2017-Oct-11 18:30N 59°11' E 010°57'510.0
2017-Oct-11 18:00N 59°06' E 010°58'510.7
2017-Oct-11 17:30N 59°01' E 010°57'5 9.2
2017-Oct-11 17:00N 59°02' E 010°48'38 2.2
2017-Oct-10 23:56N 59°06' E 009°35'0 0.0
2017-Oct-10 23:20N 59°06' E 009°35'0 0.0
2017-Oct-10 22:56N 59°06' E 009°35'0 0.0
2017-Oct-10 22:20N 59°06' E 009°35'0 0.0
2017-Oct-10 21:56N 59°06' E 009°35'0 0.0
2017-Oct-10 21:20N 59°06' E 009°35'0 0.0
2017-Oct-10 20:56N 59°06' E 009°35'0 0.0
2017-Oct-10 20:20N 59°06' E 009°35'0 0.2
2017-Oct-10 20:00N 59°06' E 009°35'2 3.6
2017-Oct-10 19:30N 59°05' E 009°38'4 8.4
2017-Oct-10 19:00N 59°02' E 009°44'510.2
2017-Oct-10 18:30N 58°58' E 009°48'4 8.4
2017-Oct-10 18:00N 58°53' E 009°47'2 4.1
2017-Oct-10 17:30N 58°52' E 009°44'1 2.0
2017-Oct-10 17:00N 58°51' E 009°42'1 1.2
2017-Oct-10 16:29N 58°51' E 009°41'1 1.5
2017-Oct-10 16:00N 58°51' E 009°40'1 1.6
2017-Oct-10 15:30N 58°50' E 009°39'1 1.4
2017-Oct-10 15:00N 58°50' E 009°40'2 1.5
2017-Oct-10 14:00N 58°51' E 009°43'1 1.6
2017-Oct-10 13:30N 58°52' E 009°44'1 1.8
2017-Oct-10 13:00N 58°52' E 009°46'1 1.6
2017-Oct-10 12:30N 58°52' E 009°47'1 1.4
2017-Oct-10 12:00N 58°53' E 009°48'1 1.6
2017-Oct-10 11:30N 58°53' E 009°50'2 3.6
2017-Oct-10 11:00N 58°52' E 009°52'5 9.5
2017-Oct-10 10:30N 58°48' E 009°56'5 9.5
2017-Oct-10 10:00N 58°43' E 009°59'510.1
2017-Oct-10 09:30N 58°39' E 010°03'5410.3
2017-Oct-10 04:16N 57°49' E 010°46'311.1
2017-Oct-10 04:00N 57°47' E 010°49'611.4
2017-Oct-10 03:30N 57°43' E 010°57'611.9
2017-Oct-10 02:59N 57°39' E 011°05'612.0
2017-Oct-10 02:30N 57°35' E 011°13'611.8
2017-Oct-10 02:00N 57°31' E 011°22'611.4
2017-Oct-10 01:30N 57°27' E 011°28'611.6
2017-Oct-10 00:59N 57°21' E 011°32'511.4
2017-Oct-10 00:30N 57°16' E 011°35'611.4
2017-Oct-10 00:00N 57°10' E 011°38'611.6
2017-Oct-09 23:30N 57°05' E 011°42'5510.5
2017-Oct-09 18:16N 56°14' E 012°17'310.3
2017-Oct-09 18:00N 56°12' E 012°21'510.3
2017-Oct-09 17:30N 56°09' E 012°29'510.2
2017-Oct-09 17:00N 56°06' E 012°35'5 9.7
2017-Oct-09 16:30N 56°02' E 012°40'5 9.4
2017-Oct-09 16:00N 55°57' E 012°43'5 9.7
2017-Oct-09 15:30N 55°53' E 012°45'5 9.5
2017-Oct-09 15:00N 55°48' E 012°47'510.4
2017-Oct-09 14:30N 55°44' E 012°52'510.2
2017-Oct-09 14:00N 55°39' E 012°57'5 9.3
2017-Oct-09 13:30N 55°36' E 012°52'510.6
2017-Oct-09 13:00N 55°32' E 012°46'510.1
2017-Oct-09 12:30N 55°27' E 012°43'510.4
2017-Oct-09 12:00N 55°22' E 012°42'4 8.4
2017-Oct-09 11:30N 55°18' E 012°44'510.7
2017-Oct-09 11:00N 55°16' E 012°53'510.6
2017-Oct-09 10:30N 55°15' E 013°02'810.8
2017-Oct-09 09:44N 55°15' E 013°17'210.5
2017-Oct-09 09:30N 55°15' E 013°21'2710.5
2017-Oct-09 06:55N 55°13' E 014°08'410.1
2017-Oct-09 06:30N 55°14' E 014°16'510.7
2017-Oct-09 06:00N 55°18' E 014°22'611.1
2017-Oct-09 05:28N 55°22' E 014°28'511.2
2017-Oct-09 05:00N 55°26' E 014°34'510.8
2017-Oct-09 04:30N 55°29' E 014°42'610.7
2017-Oct-09 03:57N 55°32' E 014°51'710.4
2017-Oct-09 03:15N 55°36' E 015°02'610.1
2017-Oct-09 02:42N 55°39' E 015°11'4 9.9
2017-Oct-09 02:15N 55°41' E 015°18'2 9.7
2017-Oct-09 02:00N 55°42' E 015°22'5 9.7
2017-Oct-09 01:30N 55°44' E 015°29'510.0
2017-Oct-09 01:00N 55°47' E 015°37'510.3
2017-Oct-09 00:30N 55°49' E 015°44'510.3
2017-Oct-09 00:00N 55°52' E 015°52'510.5
2017-Oct-08 23:30N 55°55' E 016°01'510.7
2017-Oct-08 23:00N 55°57' E 016°09'510.7
2017-Oct-08 22:30N 55°60' E 016°17'510.7
2017-Oct-08 22:00N 56°02' E 016°26'510.8
2017-Oct-08 21:30N 56°05' E 016°34'510.9
2017-Oct-08 21:00N 56°08' E 016°42'711.8
2017-Oct-08 20:26N 56°15' E 016°47'  

Dump ship's entire track history